Time;durP1;ratioP1;P1;durP2;ratioP2;P2;SDS_P1;SDS_P2;PMS_P1;PMS_P2;Temp;Humidity;BMP_temperature;BMP_pressure;BME280_temperature;BME280_humidity;BME280_pressure;Samples;Min_cycle;Max_cycle;Signal;HPM_P1;HPM_P2
2022/03/17 00:02:08;;;;;;;26.27;21.37;;;13.30;1.00;;;;;;6186975;23;20221;-86
2022/03/17 00:04:34;;;;;;;26.93;21.63;;;13.40;1.00;;;;;;6187341;23;20590;-83
2022/03/17 00:07:00;;;;;;;27.90;22.00;;;13.40;1.00;;;;;;6186964;23;20513;-80
2022/03/17 00:09:26;;;;;;;25.67;21.23;;;13.40;1.80;;;;;;6160497;23;20172;-83
2022/03/17 00:11:52;;;;;;;28.03;22.60;;;13.40;2.30;;;;;;6187443;23;20228;-82
2022/03/17 00:14:19;;;;;;;29.13;23.73;;;13.50;1.70;;;;;;6160130;23;20177;-84
2022/03/17 00:16:44;;;;;;;29.17;23.43;;;13.40;5.00;;;;;;6190662;23;20181;-83
2022/03/17 00:19:11;;;;;;;28.30;22.93;;;13.40;7.60;;;;;;6187429;23;20156;-83
2022/03/17 00:21:38;;;;;;;28.73;23.00;;;13.30;11.90;;;;;;6186462;23;20142;-84
2022/03/17 00:24:08;;;;;;;33.43;23.97;;;13.30;14.50;;;;;;6187440;23;20134;-85
2022/03/17 00:26:37;;;;;;;31.10;23.47;;;13.30;17.00;;;;;;6186414;23;20489;-83
2022/03/17 00:29:07;;;;;;;27.83;22.97;;;13.40;18.80;;;;;;6188072;23;20137;-85
2022/03/17 00:31:39;;;;;;;32.47;24.13;;;13.40;22.10;;;;;;6190276;23;20169;-80
2022/03/17 00:34:06;;;;;;;30.83;24.33;;;13.30;20.90;;;;;;6188501;23;20468;-86
2022/03/17 00:36:35;;;;;;;31.20;23.30;;;13.30;23.70;;;;;;6188173;23;20185;-83
2022/03/17 00:39:04;;;;;;;31.47;25.53;;;13.20;25.80;;;;;;6186854;23;20150;-85
2022/03/17 00:41:30;;;;;;;30.70;24.60;;;13.40;26.40;;;;;;6160726;23;20189;-83
2022/03/17 00:43:55;;;;;;;33.27;24.83;;;13.40;25.80;;;;;;6186798;23;20601;-83
2022/03/17 00:46:22;;;;;;;32.27;24.67;;;13.30;29.10;;;;;;6196034;23;20133;-82
2022/03/17 00:48:48;;;;;;;30.17;24.23;;;13.30;31.50;;;;;;6213400;22;20122;-83
2022/03/17 00:51:13;;;;;;;34.57;25.03;;;13.20;35.50;;;;;;6175234;23;20150;-81
2022/03/17 00:53:49;;;;;;;33.10;25.87;;;13.10;41.00;;;;;;6193841;23;20144;-83
2022/03/17 00:56:15;;;;;;;30.20;25.10;;;13.20;41.80;;;;;;6187558;23;20177;-84
2022/03/17 00:58:45;;;;;;;31.30;25.97;;;13.20;41.50;;;;;;6186350;23;20138;-84
2022/03/17 01:01:12;;;;;;;31.83;25.53;;;13.30;41.70;;;;;;6186591;23;20137;-84
2022/03/17 01:03:39;;;;;;;33.10;26.90;;;13.30;44.90;;;;;;6204281;22;20126;-81
2022/03/17 01:06:04;;;;;;;34.23;26.17;;;13.40;42.30;;;;;;6210843;22;20173;-85
2022/03/17 01:08:30;;;;;;;27.33;23.40;;;13.30;43.70;;;;;;6202151;23;20252;-81
2022/03/17 01:10:56;;;;;;;27.20;22.60;;;13.20;47.20;;;;;;6187824;23;20142;-83
2022/03/17 01:13:22;;;;;;;26.00;22.07;;;13.10;49.90;;;;;;6187333;23;20138;-82
2022/03/17 01:15:48;;;;;;;25.80;23.10;;;13.20;48.90;;;;;;6186679;23;20227;-85
2022/03/17 01:18:14;;;;;;;27.93;23.77;;;13.00;52.50;;;;;;6186706;23;20134;-85
2022/03/17 01:20:41;;;;;;;22.40;19.87;;;12.90;57.50;;;;;;6186134;23;20142;-84
2022/03/17 01:23:07;;;;;;;24.10;21.27;;;12.80;58.90;;;;;;6186162;23;20130;-83
2022/03/17 01:25:33;;;;;;;23.10;19.30;;;12.90;62.30;;;;;;6186297;23;20165;-83
2022/03/17 01:28:00;;;;;;;18.47;16.50;;;12.80;62.60;;;;;;6186445;23;20287;-83
2022/03/17 01:30:26;;;;;;;18.87;16.97;;;12.80;63.10;;;;;;6186177;23;20153;-84
2022/03/17 01:32:52;;;;;;;20.77;17.80;;;12.70;64.40;;;;;;6186320;23;20193;-84
2022/03/17 01:35:18;;;;;;;18.97;16.93;;;12.70;64.30;;;;;;6186315;23;20177;-83
2022/03/17 01:37:44;;;;;;;20.00;16.33;;;12.70;67.10;;;;;;6186494;23;20216;-84
2022/03/17 01:40:10;;;;;;;21.67;19.47;;;12.20;66.80;;;;;;6186309;23;20192;-79
2022/03/17 01:42:36;;;;;;;19.93;17.83;;;11.90;69.30;;;;;;6186693;23;20213;-85
2022/03/17 01:45:04;;;;;;;21.33;19.03;;;11.40;69.30;;;;;;6186368;23;20472;-83
2022/03/17 01:47:31;;;;;;;23.30;19.87;;;11.10;75.10;;;;;;6186555;23;20134;-86
2022/03/17 01:50:00;;;;;;;23.97;19.53;;;10.80;82.80;;;;;;6192517;23;20209;-84
2022/03/17 01:52:26;;;;;;;23.27;20.87;;;10.70;90.00;;;;;;6170521;23;20156;-84
2022/03/17 01:54:53;;;;;;;24.20;21.40;;;10.70;91.80;;;;;;6197511;23;20172;-82
2022/03/17 01:57:20;;;;;;;25.83;21.53;;;10.50;93.60;;;;;;6194216;23;20142;-85
2022/03/17 01:59:48;;;;;;;32.20;24.23;;;10.30;95.40;;;;;;6202912;22;20208;-84
2022/03/17 02:02:14;;;;;;;33.03;25.50;;;10.20;96.70;;;;;;6179877;23;20137;-83
2022/03/17 02:04:43;;;;;;;33.30;26.47;;;10.30;97.50;;;;;;6207378;22;20141;-85
2022/03/17 02:07:11;;;;;;;36.33;27.07;;;10.20;97.90;;;;;;6202370;22;20157;-85
2022/03/17 02:09:37;;;;;;;36.73;27.27;;;10.20;98.10;;;;;;6194648;22;20157;-85
2022/03/17 02:15:05;;;;;;;34.53;26.13;;;10.20;98.20;;;;;;6210762;22;20188;-81
2022/03/17 02:17:39;;;;;;;37.30;28.23;;;10.20;98.10;;;;;;6213530;22;20152;-83
2022/03/17 02:20:10;;;;;;;31.80;25.83;;;10.20;97.70;;;;;;6208218;23;20137;-80
2022/03/17 02:25:33;;;;;;;33.43;24.67;;;10.20;97.60;;;;;;6174829;23;20149;-84
2022/03/17 02:25:47;;;;;;;33.97;24.83;;;10.10;96.70;;;;;;6188947;23;20142;-85
2022/03/17 02:28:14;;;;;;;33.03;25.43;;;10.20;96.30;;;;;;6187751;23;20142;-84
2022/03/17 02:30:39;;;;;;;33.43;24.23;;;10.20;96.20;;;;;;6188612;23;20168;-84
2022/03/17 02:33:11;;;;;;;33.00;23.63;;;10.20;95.70;;;;;;6160800;23;20150;-83
2022/03/17 02:35:39;;;;;;;32.83;24.97;;;9.90;96.30;;;;;;6188257;23;20494;-83
2022/03/17 02:38:06;;;;;;;32.67;25.43;;;10.00;96.10;;;;;;6188362;23;20126;-83
2022/03/17 02:40:33;;;;;;;31.90;23.83;;;10.10;95.50;;;;;;6188336;23;20149;-82
2022/03/17 02:42:59;;;;;;;27.20;22.73;;;10.20;93.80;;;;;;6187879;23;20579;-80
2022/03/17 02:45:26;;;;;;;31.93;24.50;;;10.20;91.90;;;;;;6162235;23;20157;-83
2022/03/17 02:47:52;;;;;;;30.97;23.70;;;10.20;91.30;;;;;;6188273;23;20138;-85
2022/03/17 02:50:18;;;;;;;32.23;23.13;;;10.40;90.80;;;;;;6161998;23;20142;-84
2022/03/17 02:52:45;;;;;;;30.03;23.17;;;10.50;86.90;;;;;;6188778;23;20138;-83
2022/03/17 02:55:11;;;;;;;33.67;24.83;;;10.50;82.30;;;;;;6188513;23;20169;-86
2022/03/17 02:57:39;;;;;;;26.10;22.03;;;10.50;78.90;;;;;;6187525;23;20232;-85
2022/03/17 03:00:07;;;;;;;27.20;22.40;;;10.40;74.50;;;;;;6194961;23;20142;-85
2022/03/17 03:02:32;;;;;;;28.10;23.00;;;10.40;73.90;;;;;;6209256;23;20145;-83
2022/03/17 03:04:58;;;;;;;25.73;21.47;;;10.40;72.60;;;;;;6214623;23;20142;-83
2022/03/17 03:07:24;;;;;;;23.47;20.63;;;10.40;71.90;;;;;;6210882;23;20157;-83
2022/03/17 03:09:59;;;;;;;24.10;19.60;;;10.40;68.50;;;;;;6196426;23;20161;-83
2022/03/17 03:12:27;;;;;;;23.70;20.53;;;10.30;68.20;;;;;;6189345;23;20152;-85
2022/03/17 03:14:52;;;;;;;22.13;19.00;;;10.40;68.00;;;;;;6187575;23;20215;-83
2022/03/17 03:17:20;;;;;;;22.57;18.33;;;10.40;62.40;;;;;;6187374;23;20146;-86
2022/03/17 03:19:47;;;;;;;23.80;20.07;;;10.30;62.60;;;;;;6200037;22;20145;-80
2022/03/17 03:22:12;;;;;;;24.43;19.17;;;10.20;63.90;;;;;;6189215;23;20170;-83
2022/03/17 03:24:39;;;;;;;21.17;18.90;;;10.30;61.80;;;;;;6211198;23;20165;-82
2022/03/17 03:27:32;;;;;;;25.07;18.73;;;10.20;60.10;;;;;;6190583;23;20146;-81
2022/03/17 03:29:58;;;;;;;22.57;18.97;;;10.20;58.80;;;;;;6187837;23;20134;-85
2022/03/17 03:32:25;;;;;;;17.97;16.00;;;10.10;59.90;;;;;;6161280;23;20181;-84
2022/03/17 03:34:51;;;;;;;17.40;14.50;;;10.20;56.00;;;;;;6187126;23;20498;-84
2022/03/17 03:37:24;;;;;;;15.90;14.30;;;10.00;46.40;;;;;;6187524;23;20177;-85
2022/03/17 03:39:55;;;;;;;15.33;12.53;;;10.00;43.60;;;;;;6190593;23;20225;-84
2022/03/17 03:42:23;;;;;;;15.10;13.43;;;10.00;38.40;;;;;;6189550;23;20134;-85
2022/03/17 03:44:51;;;;;;;15.87;13.53;;;10.00;40.00;;;;;;6188055;23;20141;-84
2022/03/17 03:47:17;;;;;;;15.40;13.13;;;10.10;36.80;;;;;;6210013;22;20114;-78
2022/03/17 03:49:43;;;;;;;13.27;11.90;;;10.20;31.00;;;;;;6203794;23;20142;-84
2022/03/17 03:52:11;;;;;;;14.33;12.93;;;10.10;26.10;;;;;;6206099;22;20147;-83
2022/03/17 03:54:38;;;;;;;15.33;13.80;;;10.10;28.30;;;;;;6195254;23;20133;-84
2022/03/17 03:57:04;;;;;;;16.80;14.03;;;10.10;24.60;;;;;;6190183;23;20161;-84
2022/03/17 03:59:31;;;;;;;15.77;14.20;;;10.10;24.60;;;;;;6191121;23;20212;-84
2022/03/17 04:02:05;;;;;;;15.73;13.53;;;10.00;22.60;;;;;;6189428;23;20134;-83
2022/03/17 04:04:34;;;;;;;16.93;14.33;;;10.00;24.60;;;;;;6188264;23;20160;-81
2022/03/17 04:07:03;;;;;;;14.20;12.20;;;9.80;23.40;;;;;;6187356;23;20189;-84
2022/03/17 04:09:33;;;;;;;14.80;13.10;;;9.80;22.10;;;;;;6187561;23;20189;-84
2022/03/17 04:12:00;;;;;;;14.10;12.70;;;9.70;21.30;;;;;;6187379;23;20587;-85
2022/03/17 04:14:25;;;;;;;14.43;12.90;;;9.70;22.30;;;;;;6188297;23;20645;-85
2022/03/17 04:16:51;;;;;;;13.67;11.70;;;9.70;20.80;;;;;;6187776;23;20174;-84
2022/03/17 04:19:17;;;;;;;15.27;12.83;;;9.70;18.40;;;;;;6187091;23;20141;-84
2022/03/17 04:21:44;;;;;;;17.10;12.70;;;9.60;19.00;;;;;;6161024;23;20149;-84
2022/03/17 04:24:10;;;;;;;16.13;11.43;;;9.60;17.40;;;;;;6186871;23;20129;-79
2022/03/17 04:26:36;;;;;;;14.40;12.13;;;9.70;16.60;;;;;;6187592;23;20145;-84
2022/03/17 04:29:02;;;;;;;13.13;11.77;;;9.60;17.70;;;;;;6187116;23;20469;-85
2022/03/17 04:31:29;;;;;;;13.90;11.20;;;9.60;17.20;;;;;;6187239;23;20471;-83
2022/03/17 04:33:55;;;;;;;13.30;11.90;;;9.60;18.60;;;;;;6186856;23;20573;-85
2022/03/17 04:36:21;;;;;;;14.17;12.40;;;9.70;15.50;;;;;;6187080;23;20676;-83
2022/03/17 04:38:47;;;;;;;13.37;11.57;;;9.70;16.50;;;;;;6186654;23;20212;-84
2022/03/17 04:41:14;;;;;;;14.90;12.30;;;9.80;11.20;;;;;;6188832;23;20169;-84
2022/03/17 04:43:40;;;;;;;16.93;11.73;;;9.70;12.80;;;;;;6187537;23;20138;-84
2022/03/17 04:46:07;;;;;;;15.20;11.87;;;9.70;13.60;;;;;;6188792;23;20603;-84
2022/03/17 04:48:34;;;;;;;12.43;10.70;;;9.80;10.90;;;;;;6186772;23;20188;-83
2022/03/17 04:51:01;;;;;;;12.93;10.77;;;9.70;6.50;;;;;;6186951;23;20245;-85
2022/03/17 04:53:27;;;;;;;13.83;10.93;;;9.50;9.20;;;;;;6187770;23;20222;-84
2022/03/17 04:55:58;;;;;;;12.43;10.83;;;9.50;13.00;;;;;;6186660;23;20197;-84
2022/03/17 04:58:24;;;;;;;13.83;10.73;;;9.50;7.70;;;;;;6188418;23;20134;-85
2022/03/17 05:00:52;;;;;;;12.43;9.37;;;9.40;6.10;;;;;;6162640;23;20215;-84
2022/03/17 05:03:19;;;;;;;13.30;8.93;;;9.40;1.10;;;;;;6161908;23;20182;-84
2022/03/17 05:05:45;;;;;;;11.00;9.63;;;9.40;1.00;;;;;;6188686;23;20185;-81
2022/03/17 05:08:12;;;;;;;14.60;9.73;;;9.40;1.00;;;;;;6195077;22;20169;-81
2022/03/17 05:10:38;;;;;;;11.00;8.67;;;9.60;1.00;;;;;;6187701;23;20192;-84
2022/03/17 05:13:04;;;;;;;11.43;8.73;;;9.60;1.00;;;;;;6213351;22;20126;-78
2022/03/17 05:15:30;;;;;;;9.87;8.50;;;9.60;1.00;;;;;;6211892;22;20194;-83
2022/03/17 05:18:09;;;;;;;10.33;8.70;;;9.50;1.00;;;;;;6212376;22;20149;-76
2022/03/17 05:20:48;;;;;;;11.63;9.03;;;9.50;1.00;;;;;;6202720;23;20138;-82
2022/03/17 05:23:40;;;;;;;9.50;8.20;;;9.40;1.00;;;;;;6192465;23;20138;-84
2022/03/17 05:26:08;;;;;;;10.03;8.57;;;9.40;1.00;;;;;;6161139;23;20589;-84
2022/03/17 05:28:34;;;;;;;11.20;9.40;;;9.40;1.00;;;;;;6187101;23;20192;-85
2022/03/17 05:31:01;;;;;;;10.03;9.03;;;9.40;1.00;;;;;;6190707;23;20144;-81
2022/03/17 05:33:27;;;;;;;10.13;8.37;;;9.50;1.00;;;;;;6206494;22;20114;-80
2022/03/17 05:35:53;;;;;;;10.67;8.67;;;9.30;1.00;;;;;;6207422;23;20181;-84
2022/03/17 05:38:18;;;;;;;11.10;8.73;;;9.50;1.00;;;;;;6194478;23;20134;-83
2022/03/17 05:40:45;;;;;;;11.63;8.73;;;9.60;1.00;;;;;;6188651;23;20164;-84
2022/03/17 05:43:11;;;;;;;11.40;8.67;;;9.50;1.00;;;;;;6196857;23;20209;-84
2022/03/17 05:45:39;;;;;;;10.00;8.37;;;9.40;1.00;;;;;;6201888;23;20146;-84
2022/03/17 05:48:06;;;;;;;9.13;8.00;;;9.40;1.00;;;;;;6203679;22;20142;-84
2022/03/17 05:50:37;;;;;;;11.17;8.33;;;9.40;1.00;;;;;;6204158;23;20145;-86
2022/03/17 05:53:07;;;;;;;12.17;8.80;;;9.40;1.00;;;;;;6201673;23;20146;-79
2022/03/17 05:55:34;;;;;;;11.50;8.83;;;9.40;1.00;;;;;;6195770;23;20177;-84
2022/03/17 05:58:02;;;;;;;11.67;9.60;;;9.40;1.00;;;;;;6188666;23;20138;-83
2022/03/17 06:00:29;;;;;;;14.33;9.60;;;9.40;1.00;;;;;;6162245;23;20565;-83
2022/03/17 06:02:57;;;;;;;11.53;8.90;;;9.50;1.00;;;;;;6162226;23;20232;-86
2022/03/17 06:05:23;;;;;;;12.07;8.40;;;9.50;1.00;;;;;;6188756;23;20161;-84
2022/03/17 06:07:51;;;;;;;11.00;8.40;;;9.40;1.00;;;;;;6188222;23;20180;-84
2022/03/17 06:10:26;;;;;;;13.13;8.50;;;9.40;1.00;;;;;;6188445;23;20157;-84
2022/03/17 06:12:54;;;;;;;11.07;8.80;;;9.50;1.00;;;;;;6163156;23;20168;-80
2022/03/17 06:15:21;;;;;;;10.90;9.00;;;9.30;1.00;;;;;;6188010;23;20170;-83
2022/03/17 06:17:50;;;;;;;9.57;8.33;;;9.30;1.00;;;;;;6189090;23;20142;-83
2022/03/17 06:20:18;;;;;;;10.00;8.07;;;9.20;1.00;;;;;;6188551;23;20134;-83
2022/03/17 06:22:46;;;;;;;9.50;8.13;;;9.30;1.00;;;;;;6161627;23;20193;-84
2022/03/17 06:25:14;;;;;;;10.80;8.20;;;9.20;1.00;;;;;;6189113;23;20273;-84
2022/03/17 06:27:42;;;;;;;10.57;7.97;;;9.20;1.00;;;;;;6189332;23;20213;-84
2022/03/17 06:30:11;;;;;;;10.97;9.50;;;9.30;1.00;;;;;;6188101;23;20149;-83
2022/03/17 06:32:39;;;;;;;12.23;8.67;;;9.30;1.00;;;;;;6189639;23;20597;-86
2022/03/17 06:35:19;;;;;;;12.50;9.17;;;9.20;1.00;;;;;;6192146;23;20177;-83
2022/03/17 06:37:48;;;;;;;10.33;8.30;;;9.10;1.00;;;;;;6176540;23;20205;-82
2022/03/17 06:40:16;;;;;;;9.40;8.33;;;9.30;1.00;;;;;;6180660;23;20148;-82
2022/03/17 06:42:43;;;;;;;12.67;8.50;;;9.30;1.00;;;;;;6207899;23;20169;-82
2022/03/17 06:45:10;;;;;;;11.47;8.53;;;9.30;1.00;;;;;;6208504;23;20122;-81
2022/03/17 06:47:35;;;;;;;12.50;8.93;;;9.20;1.00;;;;;;6209067;23;20134;-78
2022/03/17 06:50:01;;;;;;;8.57;7.67;;;9.40;1.00;;;;;;6210882;23;20125;-80
2022/03/17 06:52:27;;;;;;;11.10;7.77;;;9.40;1.00;;;;;;6203822;23;20197;-82
2022/03/17 06:54:52;;;;;;;10.03;8.20;;;9.20;1.00;;;;;;6195482;23;20423;-85
2022/03/17 06:57:23;;;;;;;9.57;7.17;;;9.30;1.00;;;;;;6193959;23;20143;-86
2022/03/17 06:59:50;;;;;;;10.13;7.10;;;9.30;1.00;;;;;;6194509;23;20134;-85
2022/03/17 07:02:17;;;;;;;10.23;7.07;;;9.30;1.00;;;;;;6163396;23;20150;-84
2022/03/17 07:04:45;;;;;;;8.53;6.93;;;9.30;1.00;;;;;;6189343;23;20161;-83
2022/03/17 07:07:11;;;;;;;9.20;7.20;;;9.40;1.00;;;;;;6188411;23;20169;-85
2022/03/17 07:09:37;;;;;;;10.97;7.13;;;9.30;1.00;;;;;;6188504;23;20176;-86
2022/03/17 07:12:03;;;;;;;8.23;6.73;;;9.30;1.00;;;;;;6187096;23;20153;-86
2022/03/17 07:14:35;;;;;;;9.20;6.80;;;9.20;1.00;;;;;;6188914;23;20165;-87
2022/03/17 07:17:00;;;;;;;7.93;6.63;;;9.10;1.00;;;;;;6189199;23;20177;-84
2022/03/17 07:19:27;;;;;;;10.30;7.30;;;9.10;1.00;;;;;;6191044;23;20150;-87
2022/03/17 07:21:54;;;;;;;7.47;6.50;;;9.20;1.00;;;;;;6189318;23;20144;-82
2022/03/17 07:24:20;;;;;;;9.57;6.40;;;9.30;1.00;;;;;;6188484;23;20137;-86
2022/03/17 07:26:46;;;;;;;8.60;6.50;;;9.20;1.00;;;;;;6163064;23;20170;-87
2022/03/17 07:29:13;;;;;;;9.20;6.23;;;9.40;1.00;;;;;;6190091;23;20146;-86
2022/03/17 07:31:38;;;;;;;8.17;5.43;;;9.50;1.00;;;;;;6189464;23;20142;-84
2022/03/17 07:34:05;;;;;;;9.50;6.20;;;9.30;1.00;;;;;;6191848;23;20134;-76
2022/03/17 07:36:31;;;;;;;7.23;4.97;;;9.20;1.00;;;;;;6203207;23;20229;-82
2022/03/17 07:38:58;;;;;;;12.93;5.43;;;9.10;1.00;;;;;;6199607;23;20481;-82
2022/03/17 07:41:25;;;;;;;8.20;5.50;;;9.30;1.00;;;;;;6194786;23;20633;-86
2022/03/17 07:43:51;;;;;;;7.07;5.43;;;9.30;1.00;;;;;;6193317;23;20138;-85
2022/03/17 07:46:18;;;;;;;6.67;4.67;;;9.30;1.00;;;;;;6167805;23;20153;-87
2022/03/17 07:48:44;;;;;;;7.67;5.03;;;9.30;1.00;;;;;;6196910;23;20130;-79
2022/03/17 07:51:11;;;;;;;6.97;4.67;;;9.20;1.00;;;;;;6203724;23;20149;-83
2022/03/17 07:53:38;;;;;;;5.47;4.10;;;9.10;1.00;;;;;;6200407;23;20142;-87
2022/03/17 07:56:06;;;;;;;6.47;4.63;;;9.10;1.00;;;;;;6197611;23;20592;-85
2022/03/17 07:58:34;;;;;;;8.77;4.50;;;9.10;1.00;;;;;;6196103;23;20265;-85
2022/03/17 08:01:02;;;;;;;8.73;4.37;;;9.20;1.00;;;;;;6188697;23;20142;-85
2022/03/17 08:03:27;;;;;;;7.97;4.90;;;9.30;1.00;;;;;;6191955;23;20198;-86
2022/03/17 08:05:54;;;;;;;6.37;4.83;;;9.30;1.00;;;;;;6189968;23;20165;-87
2022/03/17 08:08:20;;;;;;;8.27;4.90;;;9.20;1.00;;;;;;6190058;23;20162;-84
2022/03/17 08:10:46;;;;;;;9.67;4.87;;;9.30;1.00;;;;;;6190555;23;20189;-83
2022/03/17 08:13:13;;;;;;;8.13;5.20;;;9.40;1.00;;;;;;6189801;23;20204;-85
2022/03/17 08:15:41;;;;;;;7.07;5.00;;;9.50;1.00;;;;;;6166450;23;20213;-86
2022/03/17 08:18:08;;;;;;;7.37;5.30;;;9.50;1.00;;;;;;6209180;23;20134;-84
2022/03/17 08:20:38;;;;;;;9.20;5.17;;;9.30;1.00;;;;;;6210892;22;20130;-86
2022/03/17 08:23:05;;;;;;;10.50;5.50;;;9.30;1.00;;;;;;6210831;22;20129;-84
2022/03/17 08:25:31;;;;;;;6.60;4.80;;;9.40;1.00;;;;;;6174818;23;20158;-84
2022/03/17 08:28:04;;;;;;;6.57;5.07;;;9.50;1.00;;;;;;6201724;22;20118;-77
2022/03/17 08:31:17;;;;;;;5.63;4.60;;;9.40;1.00;;;;;;6189246;23;20134;-86
2022/03/17 08:33:44;;;;;;;9.07;4.87;;;9.40;1.00;;;;;;6188330;23;20126;-80
2022/03/17 08:36:10;;;;;;;7.30;5.30;;;9.30;1.00;;;;;;6164806;23;20185;-82
2022/03/17 08:38:39;;;;;;;8.93;5.43;;;9.40;1.00;;;;;;6194160;23;20157;-83
2022/03/17 08:41:05;;;;;;;7.23;5.40;;;9.30;1.00;;;;;;6196259;23;20145;-87
2022/03/17 08:43:30;;;;;;;6.47;5.07;;;9.30;1.00;;;;;;6187971;23;20134;-86
2022/03/17 08:51:26;;;;;;;7.00;5.40;;;9.40;1.00;;;;;;6188641;23;20207;-84
2022/03/17 08:53:52;;;;;;;8.30;5.70;;;9.40;1.00;;;;;;6187927;23;20142;-87
2022/03/17 08:56:18;;;;;;;9.37;5.43;;;9.30;1.00;;;;;;6188693;23;20180;-87
2022/03/17 08:58:43;;;;;;;7.80;5.47;;;9.40;1.00;;;;;;6189580;23;20131;-87
2022/03/17 09:01:10;;;;;;;9.03;5.87;;;9.60;1.00;;;;;;6162492;23;20157;-87
2022/03/17 09:03:37;;;;;;;7.47;5.37;;;9.40;1.00;;;;;;6188040;23;20182;-81
2022/03/17 09:06:03;;;;;;;7.47;5.60;;;9.40;1.00;;;;;;6188843;23;20172;-89
2022/03/17 09:08:29;;;;;;;8.93;5.53;;;9.60;1.00;;;;;;6188228;23;20189;-83
2022/03/17 09:10:56;;;;;;;7.00;5.60;;;9.50;1.00;;;;;;6188089;23;20137;-86
2022/03/17 09:13:29;;;;;;;8.07;5.80;;;9.40;1.00;;;;;;6187507;23;20224;-88
2022/03/17 09:15:55;;;;;;;7.70;4.53;;;9.40;1.00;;;;;;6189446;23;20224;-89
2022/03/17 09:18:21;;;;;;;15.63;5.87;;;9.30;1.00;;;;;;6188890;23;20134;-88
2022/03/17 09:20:48;;;;;;;7.20;4.73;;;9.30;1.00;;;;;;6190054;23;20166;-80
2022/03/17 09:23:16;;;;;;;7.43;5.00;;;9.30;1.00;;;;;;6188950;23;20220;-89
2022/03/17 09:25:43;;;;;;;6.27;4.57;;;9.40;1.00;;;;;;6163583;23;20195;-88
2022/03/17 09:28:09;;;;;;;7.63;4.53;;;9.40;1.00;;;;;;6196328;23;20141;-88
2022/03/17 09:30:35;;;;;;;7.03;5.17;;;9.40;1.00;;;;;;6169115;23;20369;-88
2022/03/17 09:33:03;;;;;;;10.43;4.80;;;9.50;1.00;;;;;;6199386;23;20164;-87
2022/03/17 09:35:29;;;;;;;12.33;5.50;;;9.40;1.00;;;;;;6188712;23;20170;-86
2022/03/17 09:37:56;;;;;;;7.43;4.10;;;9.50;1.00;;;;;;6190290;23;20214;-89
2022/03/17 09:40:25;;;;;;;8.53;4.73;;;9.40;1.00;;;;;;6162875;23;20597;-88
2022/03/17 09:43:18;;;;;;;6.97;4.60;;;9.40;1.00;;;;;;6188176;23;20142;-88
2022/03/17 09:45:41;;;;;;;7.03;4.93;;;9.40;1.00;;;;;;6190205;23;20235;-88
2022/03/17 09:48:12;;;;;;;7.27;5.00;;;9.50;99.90;;;;;;6165727;23;20146;-89
2022/03/17 09:50:39;;;;;;;6.13;4.77;;;9.60;99.90;;;;;;6192715;23;20150;-86
2022/03/17 09:53:07;;;;;;;7.53;5.43;;;9.50;99.90;;;;;;6197409;23;20217;-88
2022/03/17 09:55:34;;;;;;;7.83;5.10;;;9.50;99.90;;;;;;6171518;23;20265;-85
2022/03/17 09:58:02;;;;;;;8.60;4.80;;;9.50;99.90;;;;;;6200044;23;20129;-82
2022/03/17 10:00:47;;;;;;;6.70;5.07;;;9.40;99.90;;;;;;6209415;23;20137;-87
2022/03/17 10:03:16;;;;;;;6.23;4.73;;;9.50;1.00;;;;;;6200337;23;20127;-88
2022/03/17 10:05:49;;;;;;;9.37;5.57;;;9.50;1.00;;;;;;6192685;23;20193;-87
2022/03/17 10:08:17;;;;;;;6.70;4.97;;;9.50;99.90;;;;;;6194417;23;20169;-84
2022/03/17 10:10:45;;;;;;;6.60;5.20;;;9.40;1.00;;;;;;6168274;23;20154;-86
2022/03/17 10:13:17;;;;;;;6.80;5.57;;;9.50;99.90;;;;;;6192113;23;20131;-86
2022/03/17 10:16:10;;;;;;;7.60;5.63;;;9.40;99.90;;;;;;6172880;23;20252;-86
2022/03/17 10:18:37;;;;;;;7.27;5.43;;;9.40;1.00;;;;;;6196671;23;20145;-87
2022/03/17 10:21:24;;;;;;;8.07;5.77;;;9.50;99.90;;;;;;6201701;23;20205;-87
2022/03/17 10:24:09;;;;;;;7.77;5.30;;;9.50;1.00;;;;;;6197916;23;20142;-84
2022/03/17 10:26:40;;;;;;;9.33;5.47;;;9.40;99.90;;;;;;6194560;23;20148;-87
2022/03/17 10:29:19;;;;;;;6.97;4.97;;;9.40;1.00;;;;;;6193351;23;20137;-87
2022/03/17 10:32:01;;;;;;;7.57;4.70;;;9.50;99.90;;;;;;6191769;23;20173;-82
2022/03/17 10:34:29;;;;;;;8.47;5.27;;;9.60;65.20;;;;;;6161875;23;20169;-87
2022/03/17 10:37:12;;;;;;;8.90;4.40;;;9.70;99.90;;;;;;6189943;23;20178;-84
2022/03/17 10:39:48;;;;;;;5.67;3.80;;;10.00;99.90;;;;;;6164729;23;20150;-82
2022/03/17 10:42:22;;;;;;;6.50;4.30;;;10.10;99.90;;;;;;6139963;23;20149;-87
2022/03/17 10:44:54;;;;;;;6.70;3.87;;;10.00;1.00;;;;;;6192835;23;20141;-85
2022/03/17 10:47:42;;;;;;;7.90;3.60;;;10.00;1.00;;;;;;6191038;23;20137;-84
2022/03/17 10:50:22;;;;;;;5.87;3.77;;;10.00;1.00;;;;;;6192893;23;20154;-86
2022/03/17 10:52:57;;;;;;;11.00;3.93;;;9.90;1.00;;;;;;6191420;23;20133;-86
2022/03/17 10:55:32;;;;;;;7.43;4.00;;;10.00;1.00;;;;;;6163693;23;20273;-86
2022/03/17 10:58:18;;;;;;;6.73;3.93;;;9.90;99.90;;;;;;6188415;23;20164;-81
2022/03/17 11:00:45;;;;;;;4.57;3.40;;;9.90;1.00;;;;;;6188876;23;20142;-85
2022/03/17 11:03:12;;;;;;;8.27;4.20;;;9.70;1.00;;;;;;6189922;23;20459;-85
2022/03/17 11:05:38;;;;;;;7.67;3.93;;;9.70;1.00;;;;;;6187276;23;20533;-87
2022/03/17 11:08:09;;;;;;;5.53;3.30;;;9.70;1.20;;;;;;6189034;23;20168;-84
2022/03/17 11:10:35;;;;;;;7.70;3.60;;;9.80;99.90;;;;;;6190494;23;20617;-86
2022/03/17 11:13:08;;;;;;;7.87;3.70;;;9.70;1.00;;;;;;6191265;23;20134;-87
2022/03/17 11:15:38;;;;;;;9.80;4.13;;;9.70;1.00;;;;;;6162061;23;20185;-81
2022/03/17 11:18:15;;;;;;;5.70;3.13;;;9.90;1.00;;;;;;6188618;23;20618;-87
2022/03/17 11:20:41;;;;;;;6.80;3.73;;;9.80;99.90;;;;;;6189007;23;20409;-86
2022/03/17 11:23:10;;;;;;;7.17;4.40;;;9.90;1.00;;;;;;6191728;23;20582;-82
2022/03/17 11:25:36;;;;;;;7.67;4.10;;;9.80;97.10;;;;;;6194655;23;20138;-84
2022/03/17 11:28:03;;;;;;;7.07;3.83;;;9.90;99.90;;;;;;6202428;23;20149;-81
2022/03/17 11:30:49;;;;;;;7.57;4.30;;;10.10;1.00;;;;;;6203965;23;20135;-84
2022/03/17 11:33:33;;;;;;;6.17;4.67;;;10.20;99.90;;;;;;6206322;23;20130;-78
2022/03/17 11:36:01;;;;;;;11.20;4.73;;;10.40;67.00;;;;;;6204420;23;20193;-87
2022/03/17 11:38:38;;;;;;;5.77;4.13;;;10.50;36.60;;;;;;6194738;23;20166;-80
2022/03/17 11:41:16;;;;;;;8.40;4.47;;;10.40;1.00;;;;;;6192270;23;20589;-84
2022/03/17 11:43:57;;;;;;;8.17;4.30;;;10.30;99.90;;;;;;6190159;23;20138;-87
2022/03/17 11:46:44;;;;;;;6.53;4.93;;;10.10;1.00;;;;;;6189172;23;20146;-85
2022/03/17 11:49:21;;;;;;;7.70;5.03;;;10.20;99.90;;;;;;6188185;23;20138;-81
2022/03/17 11:51:54;;;;;;;10.70;4.93;;;10.20;1.00;;;;;;6189686;23;20181;-83
2022/03/17 11:54:20;;;;;;;5.97;4.23;;;10.30;99.90;;;;;;6188965;23;20145;-83
2022/03/17 11:56:47;;;;;;;9.23;4.00;;;10.30;10.50;;;;;;6190135;23;20177;-83
2022/03/17 11:59:17;;;;;;;7.40;4.13;;;10.10;1.00;;;;;;6189535;23;20221;-82
2022/03/17 12:01:44;;;;;;;5.83;3.93;;;10.20;1.00;;;;;;6189215;23;20144;-86
2022/03/17 12:04:31;;;;;;;6.60;4.40;;;10.30;99.90;;;;;;6190428;23;20134;-84
2022/03/17 12:07:18;;;;;;;5.83;4.07;;;9.90;1.00;;;;;;6191432;23;20223;-84
2022/03/17 12:09:45;;;;;;;8.53;4.10;;;10.30;1.00;;;;;;6197176;23;20590;-81
2022/03/17 12:12:22;;;;;;;8.53;4.73;;;10.40;99.90;;;;;;6206171;23;20149;-79
2022/03/17 12:14:55;;;;;;;4.67;3.97;;;10.40;1.00;;;;;;6204271;23;20134;-83
2022/03/17 12:17:26;;;;;;;9.27;4.40;;;10.50;99.90;;;;;;6206906;23;20158;-78
2022/03/17 12:20:14;;;;;;;8.47;4.53;;;10.60;99.90;;;;;;6206329;23;20150;-77
2022/03/17 12:22:44;;;;;;;7.07;3.87;;;10.70;1.00;;;;;;6207719;23;20161;-78
2022/03/17 12:25:20;;;;;;;6.10;3.77;;;10.70;1.00;;;;;;6205403;23;20236;-84
2022/03/17 12:27:56;;;;;;;5.97;4.03;;;10.90;1.00;;;;;;6198063;23;20208;-85
2022/03/17 12:30:53;;;;;;;6.17;3.83;;;10.60;1.00;;;;;;6192881;23;20137;-86
2022/03/17 12:33:22;;;;;;;6.13;3.83;;;10.50;57.90;;;;;;6166273;23;20150;-85
2022/03/17 12:36:04;;;;;;;7.40;3.90;;;10.70;1.00;;;;;;6194102;23;20248;-83
2022/03/17 12:38:31;;;;;;;6.30;3.87;;;10.80;1.00;;;;;;6208208;23;20172;-83
2022/03/17 12:40:58;;;;;;;7.03;3.80;;;10.90;99.90;;;;;;6208705;23;20225;-84
2022/03/17 12:43:25;;;;;;;4.47;2.97;;;10.90;99.90;;;;;;6173420;23;20138;-85
2022/03/17 12:45:51;;;;;;;5.33;3.13;;;11.20;1.00;;;;;;6196072;23;20141;-78
2022/03/17 12:48:19;;;;;;;6.10;3.47;;;11.10;1.00;;;;;;6195118;23;20461;-82
2022/03/17 12:50:47;;;;;;;7.87;3.30;;;11.10;99.90;;;;;;6194250;23;20164;-84
2022/03/17 12:53:14;;;;;;;6.40;3.40;;;11.20;75.30;;;;;;6194850;23;20205;-81
2022/03/17 12:55:40;;;;;;;5.90;3.40;;;11.50;1.00;;;;;;6193639;23;20610;-84
2022/03/17 12:58:39;;;;;;;5.57;3.80;;;11.20;41.80;;;;;;6196444;23;20146;-84
2022/03/17 13:01:05;;;;;;;3.93;3.40;;;11.20;99.90;;;;;;6195139;23;20165;-82
2022/03/17 13:03:30;;;;;;;9.20;4.00;;;11.20;99.90;;;;;;6196997;23;20196;-82
2022/03/17 13:08:44;;;;;;;7.57;3.90;;;11.40;99.90;;;;;;6195716;23;20662;-86
2022/03/17 13:16:56;;;;;;;5.70;3.63;;;11.60;1.00;;;;;;6190593;23;20258;-84